Time;durP1;ratioP1;P1;durP2;ratioP2;P2;SDS_P1;SDS_P2;PMS_P1;PMS_P2;Temp;Humidity;BMP_temperature;BMP_pressure;BME280_temperature;BME280_humidity;BME280_pressure;Samples;Min_cycle;Max_cycle;Signal;HPM_P1;HPM_P2
2022/10/31 00:00:49;;;;;;;26.17;19.07;;;13.80;99.90;;;;;;5098381;28;20240;-58
2022/10/31 00:03:18;;;;;;;21.87;17.93;;;13.90;99.90;;;;;;5096511;28;20234;-59
2022/10/31 00:05:48;;;;;;;22.50;18.07;;;13.80;99.90;;;;;;5095307;28;20229;-59
2022/10/31 00:08:17;;;;;;;25.73;20.10;;;13.90;99.90;;;;;;5095523;28;20218;-59
2022/10/31 00:10:46;;;;;;;27.70;19.83;;;13.90;99.90;;;;;;5095583;28;20230;-59
2022/10/31 00:13:16;;;;;;;29.97;20.37;;;13.70;99.90;;;;;;5095846;28;20241;-59
2022/10/31 00:15:44;;;;;;;29.03;21.37;;;13.80;99.90;;;;;;5102744;28;20287;-58
2022/10/31 00:18:12;;;;;;;31.00;21.23;;;14.00;99.90;;;;;;5097225;28;20697;-59
2022/10/31 00:20:41;;;;;;;27.53;21.07;;;13.90;99.90;;;;;;5095040;28;20230;-59
2022/10/31 00:23:10;;;;;;;32.40;22.73;;;13.90;99.90;;;;;;5095743;28;20728;-59
2022/10/31 00:25:40;;;;;;;28.80;21.50;;;13.80;99.90;;;;;;5095097;28;20225;-59
2022/10/31 00:28:11;;;;;;;27.70;19.83;;;13.80;99.90;;;;;;5095275;28;20237;-59
2022/10/31 00:30:41;;;;;;;29.63;22.10;;;13.90;99.90;;;;;;5093221;28;20234;-59
2022/10/31 00:33:09;;;;;;;31.03;24.03;;;13.90;99.90;;;;;;5095208;28;21134;-60
2022/10/31 00:35:37;;;;;;;33.43;23.10;;;14.10;99.90;;;;;;5096369;28;20252;-59
2022/10/31 00:38:05;;;;;;;30.17;23.07;;;14.00;99.90;;;;;;5094837;28;20239;-59
2022/10/31 00:40:33;;;;;;;31.00;23.00;;;14.20;99.90;;;;;;5094662;28;20215;-58
2022/10/31 00:43:01;;;;;;;29.87;22.80;;;14.00;99.90;;;;;;5095150;28;20226;-59
2022/10/31 00:45:30;;;;;;;27.20;21.33;;;14.00;99.90;;;;;;5100423;28;20218;-58
2022/10/31 00:48:00;;;;;;;31.53;23.17;;;14.10;99.90;;;;;;5095475;28;20230;-58
2022/10/31 00:50:29;;;;;;;29.60;23.10;;;14.20;99.90;;;;;;5076409;28;20292;-59
2022/10/31 00:52:58;;;;;;;26.60;21.80;;;14.20;99.90;;;;;;5076367;28;20226;-59
2022/10/31 00:55:26;;;;;;;31.40;22.33;;;14.20;99.90;;;;;;5094364;28;20578;-58
2022/10/31 00:57:54;;;;;;;27.17;21.43;;;14.30;99.90;;;;;;5091200;28;20244;-58
2022/10/31 01:00:23;;;;;;;33.10;23.53;;;14.00;99.90;;;;;;5094240;28;20719;-58
2022/10/31 01:02:51;;;;;;;28.10;21.73;;;14.10;99.90;;;;;;5093236;28;20222;-59
2022/10/31 01:05:20;;;;;;;29.80;22.73;;;13.90;99.90;;;;;;5094474;28;20221;-59
2022/10/31 01:07:48;;;;;;;33.27;23.50;;;14.00;99.90;;;;;;5094203;28;20226;-59
2022/10/31 01:10:18;;;;;;;29.73;21.70;;;13.80;99.90;;;;;;5094485;28;20218;-59
2022/10/31 01:12:47;;;;;;;29.70;21.73;;;13.80;99.90;;;;;;5076044;28;20236;-58
2022/10/31 01:15:18;;;;;;;27.30;22.10;;;13.90;99.90;;;;;;5098796;28;20769;-59
2022/10/31 01:17:50;;;;;;;30.07;22.60;;;14.00;99.90;;;;;;5092075;28;20684;-59
2022/10/31 01:20:20;;;;;;;33.00;23.20;;;13.80;99.90;;;;;;5073885;28;20683;-59
2022/10/31 01:22:48;;;;;;;33.93;24.47;;;13.90;99.90;;;;;;5073689;28;20242;-59
2022/10/31 01:25:16;;;;;;;31.83;22.60;;;14.00;99.90;;;;;;5073825;28;20210;-59
2022/10/31 01:27:44;;;;;;;34.77;24.43;;;13.90;99.90;;;;;;5073521;28;20273;-59
2022/10/31 01:30:13;;;;;;;31.83;22.53;;;13.80;99.90;;;;;;5073258;28;20227;-58
2022/10/31 01:32:41;;;;;;;28.53;22.03;;;13.90;99.90;;;;;;5073397;28;20219;-59
2022/10/31 01:35:09;;;;;;;34.10;23.50;;;13.90;99.90;;;;;;5073529;28;20224;-59
2022/10/31 01:37:39;;;;;;;27.40;21.63;;;13.80;99.90;;;;;;5072032;28;20250;-58
2022/10/31 01:40:09;;;;;;;31.60;23.53;;;14.00;99.90;;;;;;5073484;28;20221;-59
2022/10/31 01:42:37;;;;;;;33.37;23.53;;;14.00;99.90;;;;;;5073245;28;20680;-59
2022/10/31 01:45:07;;;;;;;31.90;22.50;;;13.80;99.90;;;;;;5068088;28;20222;-59
2022/10/31 01:47:41;;;;;;;31.53;22.53;;;13.90;99.90;;;;;;5096193;28;20229;-58
2022/10/31 01:50:22;;;;;;;32.30;22.83;;;14.00;99.90;;;;;;5073642;28;20226;-59
2022/10/31 01:52:54;;;;;;;31.67;23.23;;;14.00;99.90;;;;;;5071810;28;20702;-59
2022/10/31 01:55:25;;;;;;;30.57;22.23;;;13.90;99.90;;;;;;5071847;28;20231;-59
2022/10/31 01:58:02;;;;;;;30.63;22.90;;;14.00;99.90;;;;;;5071871;28;20702;-59
2022/10/31 02:00:31;;;;;;;31.53;23.37;;;14.00;99.90;;;;;;5071224;28;20227;-57
2022/10/31 02:02:59;;;;;;;33.17;23.67;;;13.80;99.90;;;;;;5073141;28;20222;-60
2022/10/31 02:05:31;;;;;;;29.47;22.63;;;13.70;99.90;;;;;;5073072;28;20222;-58
2022/10/31 02:08:05;;;;;;;32.77;23.97;;;13.70;99.90;;;;;;5055063;28;20318;-59
2022/10/31 02:10:36;;;;;;;27.30;21.60;;;13.60;99.90;;;;;;5073054;28;20230;-58
2022/10/31 02:13:06;;;;;;;29.63;21.87;;;13.70;99.90;;;;;;5071701;28;20234;-59
2022/10/31 02:15:38;;;;;;;31.10;22.80;;;13.70;99.90;;;;;;5091507;28;20221;-59
2022/10/31 02:18:08;;;;;;;30.10;21.90;;;13.80;99.90;;;;;;5108218;28;20240;-59
2022/10/31 02:20:46;;;;;;;31.13;23.90;;;13.90;99.90;;;;;;5085548;28;20610;-59
2022/10/31 02:23:50;;;;;;;30.37;22.37;;;14.00;99.90;;;;;;5071475;28;20636;-59
2022/10/31 02:26:42;;;;;;;28.13;21.50;;;14.00;99.90;;;;;;5070879;28;20229;-59
2022/10/31 02:29:43;;;;;;;32.80;22.43;;;14.00;99.90;;;;;;5071450;28;20227;-58
2022/10/31 02:32:20;;;;;;;34.60;23.23;;;14.00;99.90;;;;;;5072288;28;20253;-59
2022/10/31 02:34:55;;;;;;;33.70;22.10;;;14.00;99.90;;;;;;5071166;28;20261;-59
2022/10/31 02:37:30;;;;;;;30.73;21.83;;;13.90;99.90;;;;;;5072380;28;20277;-59
2022/10/31 02:40:06;;;;;;;32.70;22.63;;;13.70;99.90;;;;;;5104688;28;20680;-59
2022/10/31 02:43:06;;;;;;;32.53;24.27;;;13.80;99.90;;;;;;5099618;28;20232;-59
2022/10/31 02:45:39;;;;;;;33.43;22.47;;;13.70;99.90;;;;;;5083363;28;20756;-59
2022/10/31 02:48:13;;;;;;;27.20;21.17;;;13.60;99.90;;;;;;5082282;28;20233;-58
2022/10/31 02:50:46;;;;;;;30.27;21.43;;;13.70;99.90;;;;;;5083446;28;20231;-59
2022/10/31 02:53:15;;;;;;;27.97;23.40;;;13.80;99.90;;;;;;5087326;28;20240;-59
2022/10/31 02:55:50;;;;;;;30.03;22.00;;;13.70;99.90;;;;;;5067882;28;20236;-58
2022/10/31 02:58:23;;;;;;;26.03;20.27;;;13.70;99.90;;;;;;5087542;28;20776;-59
2022/10/31 03:01:26;;;;;;;33.53;21.73;;;13.70;99.90;;;;;;5087436;28;20319;-59
2022/10/31 03:04:08;;;;;;;30.93;20.73;;;13.80;99.90;;;;;;5065267;28;20276;-58
2022/10/31 03:06:43;;;;;;;30.97;22.47;;;13.60;99.90;;;;;;5074036;28;20234;-58
2022/10/31 03:09:22;;;;;;;32.77;22.30;;;13.70;99.90;;;;;;5065644;28;20248;-58
2022/10/31 03:12:03;;;;;;;29.77;22.77;;;13.60;99.90;;;;;;5085580;28;20241;-57
2022/10/31 03:14:41;;;;;;;28.77;22.60;;;13.50;99.90;;;;;;5069928;28;20249;-59
2022/10/31 03:17:16;;;;;;;34.40;24.23;;;13.50;99.90;;;;;;5087464;28;20226;-58
2022/10/31 03:19:49;;;;;;;31.33;23.17;;;13.50;99.90;;;;;;5086489;28;20226;-58
2022/10/31 03:22:22;;;;;;;31.00;22.97;;;13.40;99.90;;;;;;5068737;28;20230;-59
2022/10/31 03:24:51;;;;;;;31.47;22.33;;;13.30;99.90;;;;;;5087025;28;20363;-59
2022/10/31 03:27:26;;;;;;;30.97;23.77;;;13.30;99.90;;;;;;5067761;28;20229;-57
2022/10/31 03:29:56;;;;;;;31.47;22.50;;;13.20;99.90;;;;;;5085557;28;20237;-58
2022/10/31 03:32:29;;;;;;;37.07;26.00;;;13.30;99.90;;;;;;5068079;28;20230;-58
2022/10/31 03:35:05;;;;;;;36.37;24.63;;;13.30;99.90;;;;;;5082892;28;20585;-57
2022/10/31 03:37:35;;;;;;;35.33;25.57;;;13.50;99.90;;;;;;5084941;28;20328;-58
2022/10/31 03:40:06;;;;;;;34.37;24.83;;;13.40;99.90;;;;;;5071175;28;20234;-59
2022/10/31 03:42:39;;;;;;;33.87;25.60;;;13.40;99.90;;;;;;5088763;28;20313;-59
2022/10/31 03:45:12;;;;;;;33.70;26.00;;;13.60;99.90;;;;;;5089299;28;20597;-58
2022/10/31 03:47:43;;;;;;;30.57;24.73;;;13.50;99.90;;;;;;5071375;28;20643;-58
2022/10/31 03:50:15;;;;;;;34.10;25.90;;;13.40;99.90;;;;;;5072774;28;20883;-59
2022/10/31 03:52:48;;;;;;;33.37;25.37;;;13.30;99.90;;;;;;5089614;28;20226;-58
2022/10/31 03:55:20;;;;;;;35.70;26.23;;;13.40;99.90;;;;;;5071539;28;20229;-58
2022/10/31 03:57:54;;;;;;;30.33;23.40;;;13.30;99.90;;;;;;5089208;28;20236;-59
2022/10/31 04:00:23;;;;;;;38.07;28.40;;;13.60;99.90;;;;;;5071895;28;20307;-58
2022/10/31 04:02:59;;;;;;;35.10;26.83;;;13.50;99.90;;;;;;5087012;28;20226;-56
2022/10/31 04:05:34;;;;;;;33.17;26.60;;;13.40;99.90;;;;;;5080695;28;20268;-58
2022/10/31 04:08:08;;;;;;;31.37;25.20;;;13.40;99.90;;;;;;5088119;28;20279;-59
2022/10/31 04:10:39;;;;;;;30.83;26.13;;;13.40;99.90;;;;;;5072561;28;20228;-57
2022/10/31 04:13:12;;;;;;;31.87;25.53;;;13.50;99.90;;;;;;5073746;28;20229;-58
2022/10/31 04:15:48;;;;;;;31.20;23.13;;;13.40;99.90;;;;;;5071699;28;20223;-58
2022/10/31 04:18:18;;;;;;;31.83;25.00;;;13.50;99.90;;;;;;5073323;28;20645;-59
2022/10/31 04:20:49;;;;;;;32.27;25.97;;;13.60;99.90;;;;;;5088319;28;20719;-59
2022/10/31 04:23:20;;;;;;;31.57;25.80;;;13.50;99.90;;;;;;5072180;28;20322;-59
2022/10/31 04:25:49;;;;;;;32.50;25.20;;;13.40;99.90;;;;;;5071815;28;20253;-59
2022/10/31 04:28:18;;;;;;;30.13;24.57;;;13.40;99.90;;;;;;5071171;28;20325;-59
2022/10/31 04:30:52;;;;;;;28.43;23.03;;;13.40;99.90;;;;;;5070718;28;20312;-58
2022/10/31 04:33:20;;;;;;;27.00;23.90;;;13.40;99.90;;;;;;5070963;28;20696;-59
2022/10/31 04:35:49;;;;;;;28.17;24.90;;;13.40;99.90;;;;;;5070421;28;20230;-59
2022/10/31 04:38:18;;;;;;;27.43;23.07;;;13.30;99.90;;;;;;5088151;28;20598;-58
2022/10/31 04:40:48;;;;;;;28.50;23.40;;;13.30;99.90;;;;;;5074049;28;20314;-59
2022/10/31 04:43:45;;;;;;;26.73;23.50;;;13.30;99.90;;;;;;5070541;28;20226;-59
2022/10/31 04:46:14;;;;;;;28.17;24.13;;;13.30;99.90;;;;;;5071290;28;20311;-59
2022/10/31 04:48:42;;;;;;;27.57;22.87;;;13.20;99.90;;;;;;5074924;28;20666;-59
2022/10/31 04:51:13;;;;;;;24.80;22.13;;;13.20;99.90;;;;;;5089393;28;20321;-61
2022/10/31 04:53:41;;;;;;;25.07;22.40;;;13.20;99.90;;;;;;5088004;28;20253;-58
2022/10/31 04:56:32;;;;;;;22.80;20.40;;;13.30;99.90;;;;;;5059788;28;20712;-59
2022/10/31 04:59:03;;;;;;;26.70;23.47;;;13.30;99.90;;;;;;5086410;28;20241;-59
2022/10/31 05:01:44;;;;;;;25.17;21.37;;;13.30;99.90;;;;;;5086141;28;20676;-57
2022/10/31 05:04:12;;;;;;;23.10;20.37;;;13.30;99.90;;;;;;5070127;28;20247;-59
2022/10/31 05:06:41;;;;;;;26.07;22.47;;;13.30;99.90;;;;;;5069350;28;20562;-59
2022/10/31 05:09:10;;;;;;;24.83;22.23;;;13.20;99.90;;;;;;5070462;28;20239;-59
2022/10/31 05:11:38;;;;;;;23.30;20.60;;;13.20;99.90;;;;;;5069969;28;20222;-59
2022/10/31 05:14:29;;;;;;;25.93;20.47;;;13.20;99.90;;;;;;5080423;28;20234;-59
2022/10/31 05:17:16;;;;;;;27.73;23.20;;;13.40;99.90;;;;;;5089177;28;20229;-59
2022/10/31 05:20:02;;;;;;;25.33;21.90;;;13.30;99.90;;;;;;5089601;28;20232;-58
2022/10/31 05:23:03;;;;;;;25.97;22.13;;;13.30;99.90;;;;;;5066596;28;20226;-59
2022/10/31 05:25:32;;;;;;;25.33;21.60;;;13.20;99.90;;;;;;5072139;28;20225;-61
2022/10/31 05:28:03;;;;;;;28.07;23.23;;;13.20;99.90;;;;;;5070478;28;20305;-59
2022/10/31 05:30:33;;;;;;;29.97;24.30;;;13.20;99.90;;;;;;5070263;28;20245;-59
2022/10/31 05:33:01;;;;;;;26.07;22.77;;;13.20;99.90;;;;;;5069182;28;20233;-59
2022/10/31 05:35:49;;;;;;;26.33;22.20;;;13.20;99.90;;;;;;5091671;28;20659;-59
2022/10/31 05:38:54;;;;;;;24.50;21.23;;;13.30;99.90;;;;;;5082891;28;20230;-59
2022/10/31 05:41:27;;;;;;;24.83;19.93;;;13.30;99.90;;;;;;5068475;28;20282;-58
2022/10/31 05:44:04;;;;;;;27.47;24.47;;;13.40;99.90;;;;;;5085973;28;20313;-59
2022/10/31 05:46:39;;;;;;;23.47;20.90;;;13.40;99.90;;;;;;5070147;28;20301;-57
2022/10/31 05:49:10;;;;;;;26.57;22.37;;;13.40;99.90;;;;;;5087328;28;20570;-58
2022/10/31 05:51:56;;;;;;;26.87;22.87;;;13.50;99.90;;;;;;5087951;28;20732;-59
2022/10/31 05:54:35;;;;;;;26.57;23.67;;;13.40;99.90;;;;;;5069666;28;20764;-59
2022/10/31 05:57:03;;;;;;;27.33;22.63;;;13.30;99.90;;;;;;5069429;28;20954;-59
2022/10/31 05:59:31;;;;;;;28.10;23.83;;;13.30;99.90;;;;;;5086335;28;20230;-59
2022/10/31 06:02:01;;;;;;;26.03;22.60;;;13.30;99.90;;;;;;5082599;28;20321;-59
2022/10/31 06:04:55;;;;;;;26.87;23.33;;;13.20;99.90;;;;;;5061897;28;20593;-58
2022/10/31 06:07:23;;;;;;;25.30;22.37;;;13.20;99.90;;;;;;5088047;28;20225;-58
2022/10/31 06:09:54;;;;;;;26.70;22.47;;;13.20;99.90;;;;;;5069649;28;20226;-58
2022/10/31 06:12:25;;;;;;;26.60;22.77;;;13.20;99.90;;;;;;5069748;28;20229;-59
2022/10/31 06:15:31;;;;;;;29.37;22.83;;;13.20;99.90;;;;;;4986661;28;20220;-58
2022/10/31 06:18:01;;;;;;;27.73;23.37;;;13.20;99.90;;;;;;4990300;28;20319;-59
2022/10/31 06:20:34;;;;;;;27.37;20.50;;;13.20;99.90;;;;;;5043829;28;20703;-59
2022/10/31 06:23:04;;;;;;;25.73;22.93;;;13.20;99.90;;;;;;5091643;28;20250;-59
2022/10/31 06:25:35;;;;;;;24.20;20.90;;;13.20;99.90;;;;;;5087930;28;20223;-59
2022/10/31 06:28:05;;;;;;;24.77;21.97;;;13.20;99.90;;;;;;5068601;28;20248;-59
2022/10/31 06:30:53;;;;;;;24.10;21.33;;;13.20;99.90;;;;;;5091720;28;20350;-59
2022/10/31 06:33:22;;;;;;;25.70;22.90;;;13.20;99.90;;;;;;5074686;28;20317;-59
2022/10/31 06:36:02;;;;;;;23.03;20.53;;;13.20;99.90;;;;;;5087844;28;20230;-59
2022/10/31 06:38:30;;;;;;;26.93;20.97;;;13.20;99.90;;;;;;5074764;28;20703;-59
2022/10/31 06:41:03;;;;;;;24.90;22.20;;;13.20;99.90;;;;;;5066836;28;20271;-59
2022/10/31 06:43:39;;;;;;;26.17;21.67;;;13.20;99.90;;;;;;5098109;28;20236;-58
2022/10/31 06:46:39;;;;;;;23.63;20.43;;;13.20;99.90;;;;;;5055859;28;20712;-59
2022/10/31 06:49:27;;;;;;;23.97;21.53;;;13.20;99.90;;;;;;5065725;28;20638;-59
2022/10/31 06:52:00;;;;;;;21.83;19.53;;;13.10;99.90;;;;;;5111645;28;20596;-59
2022/10/31 06:54:28;;;;;;;22.07;19.70;;;13.20;99.90;;;;;;5078226;28;20590;-59
2022/10/31 06:56:57;;;;;;;23.47;21.03;;;13.20;99.90;;;;;;5091317;28;20252;-59
2022/10/31 06:59:25;;;;;;;25.40;19.93;;;13.20;99.90;;;;;;5084396;28;20226;-59
2022/10/31 07:02:16;;;;;;;21.63;19.47;;;13.10;99.90;;;;;;5073225;28;20333;-59
2022/10/31 07:04:45;;;;;;;21.70;19.50;;;13.10;99.90;;;;;;5074214;28;20233;-58
2022/10/31 07:07:14;;;;;;;21.00;18.97;;;13.10;99.90;;;;;;5074472;28;20223;-59
2022/10/31 07:09:43;;;;;;;23.60;21.07;;;13.10;99.90;;;;;;5092202;28;20296;-59
2022/10/31 07:12:16;;;;;;;21.57;19.47;;;13.20;99.90;;;;;;5074877;28;20229;-59
2022/10/31 07:14:54;;;;;;;25.77;20.07;;;13.10;99.90;;;;;;5078339;28;20597;-59
2022/10/31 07:17:24;;;;;;;21.53;19.43;;;13.10;99.90;;;;;;5101776;28;20224;-59
2022/10/31 07:19:58;;;;;;;21.53;19.33;;;13.10;99.90;;;;;;5079507;28;20270;-59
2022/10/31 07:22:33;;;;;;;24.50;21.60;;;13.10;99.90;;;;;;5078063;28;20592;-58
2022/10/31 07:25:01;;;;;;;26.93;19.63;;;13.10;99.90;;;;;;5095538;28;20225;-59
2022/10/31 07:27:50;;;;;;;22.00;19.73;;;13.10;99.90;;;;;;5096373;28;20762;-59
2022/10/31 07:30:19;;;;;;;30.70;20.63;;;13.10;99.90;;;;;;5094565;28;20312;-59
2022/10/31 07:32:52;;;;;;;21.70;19.50;;;13.10;99.90;;;;;;5077994;28;20222;-59
2022/10/31 07:35:22;;;;;;;22.57;19.80;;;13.10;99.90;;;;;;5078014;28;20231;-59
2022/10/31 07:37:57;;;;;;;20.63;18.43;;;13.10;99.90;;;;;;5094746;28;20246;-59
2022/10/31 07:40:26;;;;;;;22.23;20.07;;;13.10;99.90;;;;;;5104767;28;20684;-58
2022/10/31 07:42:58;;;;;;;21.03;18.97;;;13.10;99.90;;;;;;5077426;28;20226;-59
2022/10/31 07:45:52;;;;;;;21.77;19.57;;;13.10;99.90;;;;;;5087613;28;20233;-59
2022/10/31 07:48:39;;;;;;;22.87;20.47;;;13.20;99.90;;;;;;5087355;28;20235;-58
2022/10/31 07:51:26;;;;;;;22.33;20.13;;;13.10;99.90;;;;;;5089683;28;20244;-58
2022/10/31 07:54:32;;;;;;;22.73;20.33;;;13.10;99.90;;;;;;5088469;28;20253;-59
2022/10/31 07:57:00;;;;;;;22.60;20.33;;;13.20;99.90;;;;;;5088219;28;20240;-59
2022/10/31 07:59:30;;;;;;;21.60;19.20;;;13.30;99.90;;;;;;5070444;28;20268;-58
2022/10/31 08:01:59;;;;;;;25.97;23.07;;;13.20;99.90;;;;;;5069923;28;20308;-59
2022/10/31 08:04:56;;;;;;;24.87;22.27;;;13.10;99.90;;;;;;5090150;28;20253;-59
2022/10/31 08:07:51;;;;;;;23.07;20.43;;;13.20;99.90;;;;;;5089040;28;20701;-58
2022/10/31 08:10:22;;;;;;;23.10;20.67;;;13.20;99.90;;;;;;5070300;28;20218;-58
2022/10/31 08:12:57;;;;;;;24.17;21.13;;;13.20;99.90;;;;;;5070967;28;20259;-59
2022/10/31 08:15:27;;;;;;;22.23;20.13;;;13.20;99.90;;;;;;5071811;28;20233;-57
2022/10/31 08:17:55;;;;;;;20.63;18.43;;;13.20;99.90;;;;;;5073766;28;20238;-59
2022/10/31 08:20:23;;;;;;;21.13;18.87;;;13.30;99.90;;;;;;5073506;28;20357;-59
2022/10/31 08:23:00;;;;;;;21.70;19.30;;;13.30;99.90;;;;;;5071421;28;20230;-59
2022/10/31 08:25:30;;;;;;;20.07;17.83;;;13.40;99.90;;;;;;5069995;28;20634;-59
2022/10/31 08:28:06;;;;;;;21.13;18.43;;;13.40;99.90;;;;;;5071816;28;20226;-58
2022/10/31 08:30:38;;;;;;;20.03;17.93;;;13.40;99.90;;;;;;5071010;28;20723;-57
2022/10/31 08:33:32;;;;;;;20.07;18.00;;;13.50;99.90;;;;;;5087175;28;20265;-58
2022/10/31 08:36:20;;;;;;;20.13;17.13;;;13.50;99.90;;;;;;5160952;23;20317;-75
2022/10/31 08:39:11;;;;;;;19.40;17.30;;;13.50;99.90;;;;;;5007933;28;20240;-75
2022/10/31 08:41:39;;;;;;;19.93;17.93;;;13.50;99.90;;;;;;5037738;28;20239;-75
2022/10/31 08:44:12;;;;;;;19.27;17.27;;;13.50;99.90;;;;;;5025498;23;20264;-56
2022/10/31 08:46:42;;;;;;;21.73;19.53;;;13.50;99.90;;;;;;5038027;28;20608;-57
2022/10/31 08:49:11;;;;;;;25.97;23.47;;;13.50;99.90;;;;;;5021259;28;20215;-57
2022/10/31 08:51:41;;;;;;;27.30;24.70;;;13.50;99.90;;;;;;5037136;28;20292;-57
2022/10/31 08:54:09;;;;;;;26.17;21.47;;;13.60;99.90;;;;;;5040236;28;20718;-56
2022/10/31 08:56:57;;;;;;;31.40;26.17;;;13.70;99.90;;;;;;5044236;28;20231;-56
2022/10/31 08:59:46;;;;;;;32.90;25.53;;;13.70;99.90;;;;;;5036161;28;20239;-56
2022/10/31 09:02:47;;;;;;;21.10;19.00;;;13.60;99.90;;;;;;4987679;28;20325;-57
2022/10/31 09:05:15;;;;;;;24.53;19.83;;;13.70;99.90;;;;;;5032136;28;20584;-57
2022/10/31 09:08:04;;;;;;;22.90;19.83;;;13.70;99.90;;;;;;5034311;28;21012;-57
2022/10/31 09:10:35;;;;;;;22.60;20.20;;;13.70;99.90;;;;;;5035003;28;20231;-57
2022/10/31 09:13:06;;;;;;;22.07;19.87;;;13.80;99.90;;;;;;5034041;28;20290;-56
2022/10/31 09:16:00;;;;;;;30.07;19.03;;;13.80;99.90;;;;;;5006747;28;20718;-56
2022/10/31 09:18:31;;;;;;;20.83;18.80;;;13.80;99.90;;;;;;5028676;28;20314;-57
2022/10/31 09:21:00;;;;;;;20.97;18.87;;;13.90;99.90;;;;;;5035902;28;20227;-56
2022/10/31 09:23:31;;;;;;;20.57;18.37;;;13.80;99.90;;;;;;5031685;28;20233;-56
2022/10/31 09:26:02;;;;;;;19.63;17.63;;;13.90;99.90;;;;;;5032219;28;20233;-57
2022/10/31 09:28:57;;;;;;;20.87;15.77;;;13.90;99.90;;;;;;5024478;28;20741;-56
2022/10/31 09:31:25;;;;;;;18.53;16.63;;;14.00;99.90;;;;;;5036730;28;20270;-56
2022/10/31 09:34:03;;;;;;;18.37;16.60;;;14.00;99.90;;;;;;5030663;28;20296;-57
2022/10/31 09:36:37;;;;;;;17.73;15.83;;;14.00;99.90;;;;;;5031896;28;20706;-57
2022/10/31 09:39:07;;;;;;;18.70;15.73;;;14.00;99.90;;;;;;5023639;28;20342;-56
2022/10/31 09:41:55;;;;;;;17.77;15.97;;;14.00;99.90;;;;;;5033425;28;20234;-56
2022/10/31 09:44:34;;;;;;;17.83;16.07;;;14.00;99.90;;;;;;5027133;28;20278;-56
2022/10/31 09:47:10;;;;;;;17.97;16.17;;;14.10;99.90;;;;;;5021796;28;20232;-56
2022/10/31 09:50:01;;;;;;;16.73;15.13;;;14.10;99.90;;;;;;5011268;28;20728;-55
2022/10/31 09:52:33;;;;;;;17.10;15.50;;;14.20;99.90;;;;;;5023271;28;20271;-56
2022/10/31 09:55:14;;;;;;;16.77;15.07;;;14.20;99.90;;;;;;5029733;28;20252;-57
2022/10/31 09:57:43;;;;;;;16.03;14.43;;;14.20;99.90;;;;;;5011928;28;20633;-56
2022/10/31 10:00:17;;;;;;;19.10;16.40;;;14.30;99.90;;;;;;5022869;28;20236;-57
2022/10/31 10:02:51;;;;;;;16.90;15.30;;;14.30;99.90;;;;;;5031059;28;20239;-56
2022/10/31 10:05:26;;;;;;;16.87;15.17;;;14.30;99.90;;;;;;5017269;28;20225;-56
2022/10/31 10:08:06;;;;;;;16.47;14.77;;;14.30;99.90;;;;;;5027939;28;20645;-56
2022/10/31 10:10:56;;;;;;;16.77;15.03;;;14.30;99.90;;;;;;5013153;28;20594;-56
2022/10/31 10:14:09;;;;;;;16.67;14.77;;;14.40;99.90;;;;;;5005017;28;20255;-56
2022/10/31 10:16:58;;;;;;;16.93;14.97;;;14.40;99.90;;;;;;5010947;28;20684;-56
2022/10/31 10:19:40;;;;;;;16.93;15.17;;;14.40;99.90;;;;;;5013521;28;20592;-57
2022/10/31 10:22:16;;;;;;;17.70;15.43;;;14.30;99.90;;;;;;5013690;28;20243;-56
2022/10/31 10:24:56;;;;;;;17.03;15.43;;;14.30;99.90;;;;;;5012841;28;20235;-57
2022/10/31 10:27:33;;;;;;;17.53;15.80;;;14.40;99.90;;;;;;5014990;28;20680;-56
2022/10/31 10:30:06;;;;;;;17.70;15.73;;;14.40;99.90;;;;;;5002315;28;20241;-56
2022/10/31 10:32:45;;;;;;;18.73;16.83;;;14.40;99.90;;;;;;5004462;28;20237;-56
2022/10/31 10:35:25;;;;;;;20.43;18.33;;;14.40;99.90;;;;;;4993914;28;20280;-56
2022/10/31 10:37:59;;;;;;;21.30;19.30;;;14.40;99.90;;;;;;4997814;28;20293;-56
2022/10/31 10:40:29;;;;;;;20.10;18.10;;;14.40;99.90;;;;;;5012836;28;20264;-57
2022/10/31 10:43:21;;;;;;;18.37;16.57;;;14.40;99.90;;;;;;5013261;28;20241;-57
2022/10/31 10:48:57;;;;;;;17.73;16.03;;;14.40;99.90;;;;;;5012760;28;20275;-57
2022/10/31 10:51:33;;;;;;;19.00;17.03;;;14.40;99.90;;;;;;5009552;28;20618;-56
2022/10/31 10:54:43;;;;;;;18.60;16.80;;;14.50;99.90;;;;;;5012874;28;20292;-57
2022/10/31 10:57:22;;;;;;;17.83;15.97;;;14.60;99.90;;;;;;5012937;28;20255;-57
2022/10/31 10:59:51;;;;;;;17.70;15.90;;;14.70;99.90;;;;;;5012599;28;20225;-57
2022/10/31 11:02:22;;;;;;;17.40;15.60;;;14.60;99.90;;;;;;5007701;28;20252;-57
2022/10/31 11:04:53;;;;;;;18.70;16.80;;;14.70;99.90;;;;;;5010742;28;20237;-57
2022/10/31 11:07:21;;;;;;;17.80;16.00;;;14.80;99.90;;;;;;5006445;28;20237;-56
2022/10/31 11:09:51;;;;;;;19.07;17.03;;;14.80;99.90;;;;;;5013218;28;20237;-56
2022/10/31 11:12:23;;;;;;;18.40;16.60;;;14.90;99.90;;;;;;5013045;28;20247;-57
2022/10/31 11:14:55;;;;;;;19.27;17.27;;;14.90;99.90;;;;;;5012146;28;20221;-55
2022/10/31 11:17:30;;;;;;;18.40;16.50;;;14.90;99.90;;;;;;4993509;28;20593;-57
2022/10/31 11:20:04;;;;;;;18.73;16.93;;;14.90;99.90;;;;;;4998360;28;20231;-56
2022/10/31 11:22:32;;;;;;;16.90;15.20;;;14.90;99.90;;;;;;5003835;28;20229;-57
2022/10/31 11:25:12;;;;;;;18.30;16.40;;;15.00;99.90;;;;;;5012924;28;20233;-55
2022/10/31 11:27:40;;;;;;;17.17;15.30;;;15.00;99.90;;;;;;5012606;28;20271;-57
2022/10/31 11:30:10;;;;;;;18.27;15.93;;;15.10;99.90;;;;;;5012814;28;20217;-57
2022/10/31 11:32:48;;;;;;;19.40;17.13;;;15.00;99.90;;;;;;5004397;28;20236;-57
2022/10/31 11:35:18;;;;;;;20.13;16.63;;;14.90;99.90;;;;;;4995412;28;20296;-57
2022/10/31 11:37:49;;;;;;;17.97;15.90;;;14.90;99.90;;;;;;5012560;28;20299;-57
2022/10/31 11:40:21;;;;;;;20.00;16.63;;;14.90;99.90;;;;;;5012487;28;20240;-57
2022/10/31 11:42:52;;;;;;;18.50;16.57;;;14.90;99.90;;;;;;5012259;28;20241;-57
2022/10/31 11:45:30;;;;;;;18.53;16.47;;;15.00;99.90;;;;;;5011062;28;20233;-56
2022/10/31 11:48:00;;;;;;;18.33;16.37;;;15.00;99.90;;;;;;5001517;28;20234;-57
2022/10/31 11:50:33;;;;;;;18.20;16.23;;;15.00;99.90;;;;;;4992903;28;20320;-57
2022/10/31 11:53:03;;;;;;;21.13;16.67;;;15.00;99.90;;;;;;4992850;28;20298;-57
2022/10/31 11:55:35;;;;;;;19.77;16.47;;;15.00;99.90;;;;;;4996279;28;20221;-57
2022/10/31 11:58:04;;;;;;;21.07;17.60;;;15.00;99.90;;;;;;5001195;28;20237;-57
2022/10/31 12:00:34;;;;;;;20.23;17.63;;;15.00;99.90;;;;;;5005368;28;20240;-57
2022/10/31 12:03:19;;;;;;;19.17;16.20;;;14.90;99.90;;;;;;5008636;28;20222;-56
2022/10/31 12:05:51;;;;;;;18.83;16.13;;;14.90;99.90;;;;;;5009098;28;20228;-57
2022/10/31 12:08:19;;;;;;;19.23;15.67;;;14.90;99.90;;;;;;5005729;28;20229;-57
2022/10/31 12:10:59;;;;;;;21.63;18.37;;;14.90;99.90;;;;;;4996811;28;20709;-57
2022/10/31 12:13:34;;;;;;;40.80;29.87;;;14.80;99.90;;;;;;5005943;28;20693;-57
2022/10/31 12:16:15;;;;;;;23.73;18.63;;;14.90;99.90;;;;;;5006838;28;20619;-57
2022/10/31 12:18:58;;;;;;;22.47;17.20;;;14.90;99.90;;;;;;5009041;28;20596;-57
2022/10/31 12:21:45;;;;;;;22.23;17.00;;;15.00;99.90;;;;;;4997414;28;20353;-57
2022/10/31 12:24:27;;;;;;;17.03;13.53;;;15.00;99.90;;;;;;5007005;28;20229;-57
2022/10/31 12:27:09;;;;;;;19.67;13.03;;;15.00;99.90;;;;;;5011674;28;20322;-57
2022/10/31 12:30:02;;;;;;;17.83;13.03;;;14.90;99.90;;;;;;5009385;28;20643;-57
2022/10/31 12:32:42;;;;;;;19.17;13.43;;;14.90;99.90;;;;;;5003200;28;20245;-57
2022/10/31 12:35:25;;;;;;;19.90;13.03;;;14.80;99.90;;;;;;4996006;28;20241;-57
2022/10/31 12:38:09;;;;;;;17.60;12.67;;;14.70;99.90;;;;;;5010583;28;20229;-57
2022/10/31 12:40:52;;;;;;;15.57;12.83;;;14.70;99.90;;;;;;5015297;28;20228;-57
2022/10/31 12:43:36;;;;;;;17.43;13.27;;;14.70;99.90;;;;;;5015019;28;20245;-57
2022/10/31 12:46:08;;;;;;;18.07;13.33;;;14.60;99.90;;;;;;5027610;28;20241;-57
2022/10/31 12:48:53;;;;;;;19.63;14.13;;;14.70;99.90;;;;;;5019210;28;20292;-57
2022/10/31 12:51:34;;;;;;;16.30;13.90;;;14.60;99.90;;;;;;5023777;28;20217;-56
2022/10/31 12:54:20;;;;;;;23.80;15.13;;;14.60;99.90;;;;;;5020717;28;20232;-57
2022/10/31 12:56:57;;;;;;;17.43;14.60;;;14.60;99.90;;;;;;5016705;28;20233;-57
2022/10/31 12:59:32;;;;;;;17.60;14.60;;;14.60;99.90;;;;;;5006382;28;20225;-57
2022/10/31 13:02:05;;;;;;;19.47;15.30;;;14.60;99.90;;;;;;5004167;28;20228;-57
2022/10/31 13:04:43;;;;;;;18.97;15.60;;;14.60;99.90;;;;;;5012404;28;20658;-57
2022/10/31 13:07:16;;;;;;;18.63;15.23;;;14.60;99.90;;;;;;5004356;28;20232;-57
2022/10/31 13:09:51;;;;;;;19.97;16.37;;;14.50;99.90;;;;;;5018336;28;20225;-57
2022/10/31 13:12:21;;;;;;;17.80;14.93;;;14.50;99.90;;;;;;5014630;28;20693;-57